Time;durP1;ratioP1;P1;durP2;ratioP2;P2;SDS_P1;SDS_P2;PMS_P1;PMS_P2;Temp;Humidity;BMP_temperature;BMP_pressure;BME280_temperature;BME280_humidity;BME280_pressure;Samples;Min_cycle;Max_cycle;Signal;HPM_P1;HPM_P2
2023/07/24 00:01:20;;;;;;;3.80;2.05;;;;;;;;;;5009627;28;20042;-73
2023/07/24 00:03:46;;;;;;;5.22;2.85;;;;;;;;;;5009395;28;20034;-74
2023/07/24 00:06:12;;;;;;;4.50;2.90;;;;;;;;;;5009049;28;20033;-74
2023/07/24 00:08:39;;;;;;;4.00;2.13;;;;;;;;;;5009808;28;20483;-74
2023/07/24 00:11:07;;;;;;;6.20;2.33;;;;;;;;;;5009442;28;20041;-73
2023/07/24 00:13:33;;;;;;;4.43;2.50;;;;;;;;;;5011805;28;20037;-74
2023/07/24 00:15:59;;;;;;;3.00;1.98;;;;;;;;;;5012994;28;20427;-73
2023/07/24 00:18:25;;;;;;;4.32;2.70;;;;;;;;;;5013047;28;20053;-73
2023/07/24 00:20:51;;;;;;;3.92;2.30;;;;;;;;;;5013391;28;20033;-73
2023/07/24 00:23:17;;;;;;;4.65;2.80;;;;;;;;;;5012383;28;20052;-74
2023/07/24 00:25:43;;;;;;;4.47;2.70;;;;;;;;;;5012933;28;20030;-73
2023/07/24 00:28:09;;;;;;;4.82;2.92;;;;;;;;;;5013472;28;20061;-73
2023/07/24 00:30:35;;;;;;;5.72;3.28;;;;;;;;;;5012694;28;20504;-74
2023/07/24 00:33:01;;;;;;;5.15;2.90;;;;;;;;;;5011874;28;20057;-73
2023/07/24 00:35:27;;;;;;;4.88;2.75;;;;;;;;;;5012785;28;20174;-73
2023/07/24 00:37:53;;;;;;;4.35;2.78;;;;;;;;;;5012679;28;20034;-73
2023/07/24 00:40:19;;;;;;;6.07;2.58;;;;;;;;;;5012425;28;20030;-72
2023/07/24 00:42:49;;;;;;;4.25;2.78;;;;;;;;;;5012589;28;20457;-73
2023/07/24 00:45:16;;;;;;;5.65;2.88;;;;;;;;;;5012602;28;20649;-74
2023/07/24 00:47:43;;;;;;;4.13;2.25;;;;;;;;;;5012165;28;20053;-73
2023/07/24 00:50:09;;;;;;;4.68;2.75;;;;;;;;;;5012284;28;20076;-73
2023/07/24 00:52:36;;;;;;;4.55;2.42;;;;;;;;;;5012256;28;20034;-73
2023/07/24 00:55:02;;;;;;;4.70;2.63;;;;;;;;;;4994109;28;20030;-74
2023/07/24 00:57:28;;;;;;;5.13;2.85;;;;;;;;;;4994968;28;20026;-74
2023/07/24 00:59:54;;;;;;;4.60;2.45;;;;;;;;;;4994398;28;20034;-74
2023/07/24 01:02:20;;;;;;;5.03;3.20;;;;;;;;;;5011804;28;20034;-72
2023/07/24 01:04:47;;;;;;;5.18;2.45;;;;;;;;;;5012352;28;20061;-72
2023/07/24 01:07:13;;;;;;;5.22;2.83;;;;;;;;;;5011741;28;20587;-71
2023/07/24 01:09:39;;;;;;;4.85;2.30;;;;;;;;;;5011945;28;20030;-73
2023/07/24 01:12:08;;;;;;;4.93;2.90;;;;;;;;;;4993957;28;20160;-73
2023/07/24 01:14:39;;;;;;;6.85;2.35;;;;;;;;;;5012053;28;20034;-73
2023/07/24 01:17:08;;;;;;;8.10;4.45;;;;;;;;;;5011980;28;20022;-73
2023/07/24 01:19:34;;;;;;;7.43;3.75;;;;;;;;;;5012225;28;20026;-73
2023/07/24 01:22:03;;;;;;;8.60;4.65;;;;;;;;;;5011400;28;20046;-72
2023/07/24 01:24:53;;;;;;;5.75;2.83;;;;;;;;;;5010715;28;20384;-73
2023/07/24 01:27:25;;;;;;;7.30;3.80;;;;;;;;;;5011660;28;20018;-72
2023/07/24 01:29:51;;;;;;;6.32;3.35;;;;;;;;;;5011748;28;20026;-74
2023/07/24 01:32:17;;;;;;;5.05;3.00;;;;;;;;;;5011395;28;20033;-73
2023/07/24 01:34:43;;;;;;;4.82;2.65;;;;;;;;;;5011830;28;20026;-71
2023/07/24 01:37:10;;;;;;;6.32;4.22;;;;;;;;;;5012128;28;20022;-73
2023/07/24 01:39:36;;;;;;;6.32;4.40;;;;;;;;;;5011506;28;20442;-74
2023/07/24 01:42:05;;;;;;;5.35;3.42;;;;;;;;;;5011130;28;20436;-73
2023/07/24 01:44:31;;;;;;;7.30;4.40;;;;;;;;;;5011534;28;20026;-72
2023/07/24 01:46:57;;;;;;;7.10;5.10;;;;;;;;;;5011315;28;20480;-73
2023/07/24 01:49:24;;;;;;;10.88;6.05;;;;;;;;;;5011301;28;20050;-74
2023/07/24 01:51:50;;;;;;;8.15;5.43;;;;;;;;;;5011370;28;20037;-73
2023/07/24 01:54:16;;;;;;;7.50;4.85;;;;;;;;;;5010712;28;20022;-73
2023/07/24 01:56:43;;;;;;;9.25;5.50;;;;;;;;;;5010017;28;20029;-73
2023/07/24 01:59:09;;;;;;;6.55;4.80;;;;;;;;;;5010760;28;20042;-73
2023/07/24 02:01:35;;;;;;;8.90;5.82;;;;;;;;;;4993419;28;20799;-73
2023/07/24 02:04:02;;;;;;;6.25;4.55;;;;;;;;;;5011213;28;20516;-73
2023/07/24 02:06:28;;;;;;;7.65;5.40;;;;;;;;;;5010949;28;20026;-75
2023/07/24 02:08:54;;;;;;;6.88;5.47;;;;;;;;;;5011212;28;20104;-73
2023/07/24 02:11:20;;;;;;;8.70;5.45;;;;;;;;;;5010621;28;20026;-75
2023/07/24 02:13:46;;;;;;;7.57;4.80;;;;;;;;;;5011254;28;20018;-74
2023/07/24 02:16:13;;;;;;;8.40;5.40;;;;;;;;;;5011223;28;20026;-74
2023/07/24 02:18:39;;;;;;;7.68;5.03;;;;;;;;;;5010841;28;20061;-73
2023/07/24 02:21:05;;;;;;;7.85;5.38;;;;;;;;;;5010514;28;20038;-72
2023/07/24 02:23:31;;;;;;;7.93;5.50;;;;;;;;;;5010903;28;20087;-73
2023/07/24 02:25:57;;;;;;;8.15;5.25;;;;;;;;;;5010627;28;20022;-73
2023/07/24 02:28:23;;;;;;;10.40;5.25;;;;;;;;;;4993721;28;20030;-74
2023/07/24 02:30:49;;;;;;;7.28;5.07;;;;;;;;;;5011778;28;20472;-73
2023/07/24 02:33:15;;;;;;;7.50;5.43;;;;;;;;;;5011101;28;20025;-74
2023/07/24 02:35:42;;;;;;;7.28;4.45;;;;;;;;;;4992563;28;20448;-74
2023/07/24 02:38:08;;;;;;;9.15;4.82;;;;;;;;;;4992942;28;20030;-73
2023/07/24 02:40:35;;;;;;;7.25;5.60;;;;;;;;;;4992486;28;20079;-74
2023/07/24 02:43:01;;;;;;;6.70;4.28;;;;;;;;;;5010284;28;20037;-73
2023/07/24 02:45:27;;;;;;;7.97;5.75;;;;;;;;;;5010518;28;20032;-72
2023/07/24 02:47:53;;;;;;;7.85;4.38;;;;;;;;;;5010262;28;20049;-71
2023/07/24 02:50:19;;;;;;;6.18;4.07;;;;;;;;;;5010172;28;20018;-72
2023/07/24 02:52:45;;;;;;;10.40;5.03;;;;;;;;;;5010130;28;20025;-71
2023/07/24 02:55:11;;;;;;;8.40;5.75;;;;;;;;;;5010059;28;20479;-72
2023/07/24 02:57:37;;;;;;;8.23;5.90;;;;;;;;;;4992615;28;20038;-73
2023/07/24 03:00:03;;;;;;;8.40;5.72;;;;;;;;;;5009818;28;20065;-72
2023/07/24 03:02:29;;;;;;;8.38;5.35;;;;;;;;;;5010313;28;20022;-74
2023/07/24 03:04:55;;;;;;;7.65;4.60;;;;;;;;;;5010132;28;20026;-73
2023/07/24 03:07:21;;;;;;;9.90;6.10;;;;;;;;;;5010236;28;20030;-73
2023/07/24 03:09:47;;;;;;;9.07;5.55;;;;;;;;;;5010026;28;20064;-73
2023/07/24 03:12:13;;;;;;;8.10;5.25;;;;;;;;;;5009784;28;20123;-73
2023/07/24 03:14:39;;;;;;;10.80;7.65;;;;;;;;;;5010356;28;20033;-73
2023/07/24 03:17:05;;;;;;;7.78;5.28;;;;;;;;;;5010172;28;20565;-73
2023/07/24 03:19:33;;;;;;;7.97;5.63;;;;;;;;;;5010456;28;20053;-73
2023/07/24 03:21:59;;;;;;;7.65;5.40;;;;;;;;;;4992583;28;20068;-72
2023/07/24 03:24:25;;;;;;;9.68;5.82;;;;;;;;;;5010592;28;20026;-74
2023/07/24 03:26:51;;;;;;;11.73;7.07;;;;;;;;;;5010437;28;20395;-74
2023/07/24 03:29:17;;;;;;;8.98;5.93;;;;;;;;;;5010102;28;20133;-73
2023/07/24 03:31:43;;;;;;;8.93;6.43;;;;;;;;;;5010325;28;20141;-74
2023/07/24 03:34:09;;;;;;;8.65;6.57;;;;;;;;;;5009662;28;20484;-75
2023/07/24 03:36:41;;;;;;;9.00;6.28;;;;;;;;;;5010240;28;20084;-74
2023/07/24 03:39:08;;;;;;;10.48;6.75;;;;;;;;;;5010107;28;20419;-74
2023/07/24 03:41:34;;;;;;;9.30;6.22;;;;;;;;;;5010355;28;20395;-74
2023/07/24 03:44:00;;;;;;;9.43;6.40;;;;;;;;;;5010086;28;20427;-76
2023/07/24 03:46:26;;;;;;;9.80;7.15;;;;;;;;;;5010610;28;20026;-73
2023/07/24 03:48:52;;;;;;;11.35;8.35;;;;;;;;;;5012981;28;20077;-72
2023/07/24 03:51:18;;;;;;;13.95;8.45;;;;;;;;;;5013513;28;20057;-74
2023/07/24 03:53:44;;;;;;;9.18;6.78;;;;;;;;;;4996036;28;20088;-76
2023/07/24 03:56:10;;;;;;;9.35;7.05;;;;;;;;;;5013981;28;20105;-73
2023/07/24 03:58:38;;;;;;;9.85;7.85;;;;;;;;;;5013462;28;20053;-74
2023/07/24 04:01:04;;;;;;;12.10;9.75;;;;;;;;;;5013751;28;20044;-75
2023/07/24 04:03:30;;;;;;;12.52;9.43;;;;;;;;;;5013589;28;20022;-75
2023/07/24 04:05:57;;;;;;;14.82;9.85;;;;;;;;;;5013123;28;20033;-74
2023/07/24 04:08:23;;;;;;;11.30;7.82;;;;;;;;;;5013738;28;20556;-75
2023/07/24 04:10:51;;;;;;;9.32;7.47;;;;;;;;;;5013870;28;20021;-75
2023/07/24 04:13:17;;;;;;;10.43;8.13;;;;;;;;;;5013700;28;20029;-73
2023/07/24 04:15:44;;;;;;;11.02;7.43;;;;;;;;;;4996230;28;20057;-74
2023/07/24 04:18:10;;;;;;;11.38;7.47;;;;;;;;;;5013081;28;20030;-76
2023/07/24 04:20:36;;;;;;;11.23;8.50;;;;;;;;;;5013298;28;20038;-76
2023/07/24 04:23:02;;;;;;;9.63;7.13;;;;;;;;;;5013133;28;20026;-75
2023/07/24 04:25:30;;;;;;;11.63;7.20;;;;;;;;;;5013593;28;20029;-75
2023/07/24 04:27:56;;;;;;;10.32;8.20;;;;;;;;;;5012924;28;20591;-75
2023/07/24 04:30:22;;;;;;;10.73;8.18;;;;;;;;;;5012846;28;20034;-74
2023/07/24 04:32:49;;;;;;;9.93;7.20;;;;;;;;;;5013108;28;20415;-74
2023/07/24 04:35:15;;;;;;;11.68;8.75;;;;;;;;;;5012249;28;20030;-76
2023/07/24 04:37:41;;;;;;;11.13;8.52;;;;;;;;;;5012889;28;20041;-74
2023/07/24 04:40:07;;;;;;;12.20;8.60;;;;;;;;;;5012292;28;20650;-73
2023/07/24 04:42:33;;;;;;;10.80;8.25;;;;;;;;;;4995479;28;20124;-75
2023/07/24 04:44:59;;;;;;;9.82;7.75;;;;;;;;;;5012774;28;20033;-75
2023/07/24 04:47:28;;;;;;;11.30;8.63;;;;;;;;;;5012885;28;20186;-76
2023/07/24 04:49:55;;;;;;;12.45;8.45;;;;;;;;;;5013745;28;20399;-77
2023/07/24 04:52:21;;;;;;;14.27;9.13;;;;;;;;;;5013079;28;20033;-75
2023/07/24 04:54:47;;;;;;;11.82;8.60;;;;;;;;;;4994717;28;20468;-75
2023/07/24 04:57:13;;;;;;;9.93;7.90;;;;;;;;;;5012748;28;20030;-76
2023/07/24 04:59:39;;;;;;;13.23;8.50;;;;;;;;;;5012537;28;20543;-76
2023/07/24 05:02:05;;;;;;;11.90;7.60;;;;;;;;;;5012364;28;20116;-77
2023/07/24 05:04:31;;;;;;;11.38;8.93;;;;;;;;;;5012673;28;20072;-76
2023/07/24 05:06:57;;;;;;;11.27;9.70;;;;;;;;;;4994148;28;20030;-75
2023/07/24 05:09:23;;;;;;;13.30;10.90;;;;;;;;;;5012372;28;20029;-75
2023/07/24 05:11:49;;;;;;;12.25;10.57;;;;;;;;;;5011924;28;20043;-76
2023/07/24 05:14:15;;;;;;;12.35;9.60;;;;;;;;;;5012134;28;20419;-76
2023/07/24 05:16:41;;;;;;;12.18;9.27;;;;;;;;;;5011760;28;20037;-77
2023/07/24 05:19:07;;;;;;;14.05;10.77;;;;;;;;;;5011728;28;20026;-76
2023/07/24 05:21:33;;;;;;;14.40;11.00;;;;;;;;;;4994346;28;20068;-76
2023/07/24 05:23:59;;;;;;;12.60;10.48;;;;;;;;;;5012187;28;20026;-77
2023/07/24 05:26:25;;;;;;;15.68;11.63;;;;;;;;;;5011438;28;20056;-76
2023/07/24 05:28:52;;;;;;;12.23;10.75;;;;;;;;;;5011743;28;20029;-76
2023/07/24 05:31:18;;;;;;;15.38;11.68;;;;;;;;;;5011475;28;20030;-75
2023/07/24 05:33:44;;;;;;;15.23;12.30;;;;;;;;;;4993996;28;20030;-76
2023/07/24 05:36:10;;;;;;;15.82;12.93;;;;;;;;;;5011856;28;20052;-75
2023/07/24 05:38:36;;;;;;;14.80;12.25;;;;;;;;;;5011245;28;20030;-74
2023/07/24 05:41:03;;;;;;;17.88;13.02;;;;;;;;;;5011668;28;20034;-76
2023/07/24 05:43:30;;;;;;;17.75;13.60;;;;;;;;;;5012016;28;20018;-76
2023/07/24 05:45:57;;;;;;;18.55;13.50;;;;;;;;;;5011345;28;20022;-75
2023/07/24 05:48:24;;;;;;;18.00;13.80;;;;;;;;;;5010884;28;20078;-76
2023/07/24 05:50:50;;;;;;;16.38;13.70;;;;;;;;;;5011053;28;20025;-76
2023/07/24 05:53:16;;;;;;;20.08;12.85;;;;;;;;;;5011334;28;20029;-75
2023/07/24 05:55:43;;;;;;;13.95;11.98;;;;;;;;;;4993918;28;20503;-76
2023/07/24 05:58:09;;;;;;;13.73;11.95;;;;;;;;;;5010931;28;20068;-74
2023/07/24 06:00:36;;;;;;;15.15;12.50;;;;;;;;;;5011624;28;20112;-77
2023/07/24 06:03:02;;;;;;;14.98;12.63;;;;;;;;;;5010650;28;20022;-75
2023/07/24 06:05:28;;;;;;;14.77;11.50;;;;;;;;;;5011249;28;20450;-75
2023/07/24 06:07:54;;;;;;;16.27;12.77;;;;;;;;;;5011351;28;20060;-76
2023/07/24 06:10:20;;;;;;;16.13;10.50;;;;;;;;;;5010791;28;20101;-76
2023/07/24 06:12:47;;;;;;;12.70;9.38;;;;;;;;;;5011252;28;20109;-74
2023/07/24 06:15:13;;;;;;;13.73;10.13;;;;;;;;;;5011244;28;20030;-75
2023/07/24 06:17:41;;;;;;;14.65;10.85;;;;;;;;;;5010858;28;20033;-76
2023/07/24 06:20:08;;;;;;;15.85;11.55;;;;;;;;;;5010995;28;20026;-76
2023/07/24 06:22:34;;;;;;;15.60;12.23;;;;;;;;;;5010812;28;20120;-74
2023/07/24 06:25:00;;;;;;;13.75;11.05;;;;;;;;;;4992733;28;20121;-74
2023/07/24 06:27:26;;;;;;;16.60;12.77;;;;;;;;;;5010832;28;20490;-75
2023/07/24 06:29:52;;;;;;;14.15;11.43;;;;;;;;;;5011345;28;20068;-75
2023/07/24 06:32:18;;;;;;;14.43;11.50;;;;;;;;;;5010424;28;20071;-74
2023/07/24 06:34:44;;;;;;;16.02;11.98;;;;;;;;;;5011139;28;20434;-76
2023/07/24 06:37:10;;;;;;;11.43;9.32;;;;;;;;;;5010122;28;20452;-75
2023/07/24 06:39:36;;;;;;;17.85;12.23;;;;;;;;;;5010260;28;20053;-75
2023/07/24 06:42:02;;;;;;;19.02;13.85;;;;;;;;;;5013725;28;20388;-77
2023/07/24 06:44:28;;;;;;;15.23;12.32;;;;;;;;;;4995607;28;20423;-76
2023/07/24 06:46:54;;;;;;;14.85;11.38;;;;;;;;;;5016947;28;20076;-75
2023/07/24 06:49:20;;;;;;;15.27;11.07;;;;;;;;;;4995275;28;20041;-75
2023/07/24 06:51:46;;;;;;;13.98;10.32;;;;;;;;;;5015221;28;20116;-76
2023/07/24 06:54:12;;;;;;;15.65;12.00;;;;;;;;;;5015251;28;20026;-76
2023/07/24 06:56:38;;;;;;;14.90;10.13;;;;;;;;;;4997120;28;20026;-76
2023/07/24 06:59:05;;;;;;;16.52;13.23;;;;;;;;;;5013050;28;20033;-76
2023/07/24 07:01:32;;;;;;;15.38;11.48;;;;;;;;;;5011868;28;20034;-77
2023/07/24 07:03:58;;;;;;;17.02;13.10;;;;;;;;;;5011414;28;20026;-77
2023/07/24 07:06:25;;;;;;;16.30;13.73;;;;;;;;;;5013874;28;20057;-78
2023/07/24 07:08:51;;;;;;;12.82;11.30;;;;;;;;;;4994761;28;20026;-77
2023/07/24 07:11:26;;;;;;;15.38;12.75;;;;;;;;;;4994532;28;20037;-75
2023/07/24 07:13:52;;;;;;;15.05;12.75;;;;;;;;;;4995665;28;20026;-76
2023/07/24 07:16:18;;;;;;;13.98;11.88;;;;;;;;;;5012954;28;20037;-75
2023/07/24 07:18:45;;;;;;;14.57;12.48;;;;;;;;;;5012299;28;20030;-76
2023/07/24 07:21:11;;;;;;;18.92;14.23;;;;;;;;;;5012688;28;20048;-76
2023/07/24 07:23:47;;;;;;;17.17;14.43;;;;;;;;;;5015560;28;20033;-75
2023/07/24 07:26:13;;;;;;;17.38;13.38;;;;;;;;;;5017731;28;20065;-76
2023/07/24 07:28:39;;;;;;;17.55;13.93;;;;;;;;;;5017058;28;20058;-77
2023/07/24 07:31:06;;;;;;;16.67;14.07;;;;;;;;;;5017156;28;20029;-75
2023/07/24 07:33:32;;;;;;;15.07;12.85;;;;;;;;;;4998803;28;20041;-76
2023/07/24 07:35:58;;;;;;;20.83;14.45;;;;;;;;;;5016462;28;20030;-76
2023/07/24 07:38:24;;;;;;;18.05;14.32;;;;;;;;;;5016104;28;20017;-74
2023/07/24 07:40:50;;;;;;;20.23;15.70;;;;;;;;;;5017446;28;20033;-76
2023/07/24 07:43:16;;;;;;;12.55;9.25;;;;;;;;;;5017946;28;20438;-77
2023/07/24 07:45:42;;;;;;;19.23;14.85;;;;;;;;;;5016340;28;20450;-75
2023/07/24 07:48:08;;;;;;;16.52;12.45;;;;;;;;;;5017569;28;20054;-76
2023/07/24 07:50:34;;;;;;;17.52;13.93;;;;;;;;;;5018156;28;20037;-74
2023/07/24 07:53:00;;;;;;;18.10;13.63;;;;;;;;;;4998686;28;20037;-76
2023/07/24 07:55:26;;;;;;;18.30;14.02;;;;;;;;;;5017755;28;20034;-76
2023/07/24 07:57:56;;;;;;;16.65;13.15;;;;;;;;;;4997754;28;20065;-77
2023/07/24 08:00:22;;;;;;;13.77;11.27;;;;;;;;;;5015062;28;20030;-76
2023/07/24 08:02:48;;;;;;;16.10;12.23;;;;;;;;;;5012628;28;20156;-75
2023/07/24 08:05:15;;;;;;;16.30;13.05;;;;;;;;;;5012622;28;20452;-75
2023/07/24 08:07:41;;;;;;;15.95;12.88;;;;;;;;;;5013735;28;20077;-76
2023/07/24 08:10:08;;;;;;;17.17;12.30;;;;;;;;;;5014962;28;20084;-75
2023/07/24 08:12:34;;;;;;;17.30;14.50;;;;;;;;;;5014010;28;20033;-76
2023/07/24 08:15:00;;;;;;;17.13;13.32;;;;;;;;;;5014887;28;20034;-76
2023/07/24 08:17:26;;;;;;;18.95;13.65;;;;;;;;;;4996524;28;20049;-74
2023/07/24 08:19:52;;;;;;;17.40;12.88;;;;;;;;;;5013862;28;20373;-75
2023/07/24 08:22:19;;;;;;;10.85;7.93;;;;;;;;;;5014925;28;20149;-76
2023/07/24 08:24:46;;;;;;;17.58;13.45;;;;;;;;;;5014270;28;20028;-76
2023/07/24 08:27:12;;;;;;;17.63;13.95;;;;;;;;;;5013493;28;20030;-75
2023/07/24 08:29:39;;;;;;;17.63;13.70;;;;;;;;;;5013892;28;20033;-76
2023/07/24 08:32:05;;;;;;;14.93;12.52;;;;;;;;;;5014170;28;20109;-75
2023/07/24 08:34:31;;;;;;;14.65;9.98;;;;;;;;;;4995901;28;20026;-76
2023/07/24 08:36:57;;;;;;;14.38;11.80;;;;;;;;;;5013228;28;20056;-76
2023/07/24 08:39:23;;;;;;;13.02;10.40;;;;;;;;;;5013998;28;20380;-75
2023/07/24 08:41:49;;;;;;;17.00;10.93;;;;;;;;;;5013459;28;20038;-76
2023/07/24 08:44:16;;;;;;;16.83;13.65;;;;;;;;;;5013221;28;20033;-76
2023/07/24 08:46:45;;;;;;;14.32;10.90;;;;;;;;;;5014943;28;20026;-77
2023/07/24 08:49:15;;;;;;;17.27;12.15;;;;;;;;;;5014099;28;20057;-76
2023/07/24 08:51:45;;;;;;;10.05;8.07;;;;;;;;;;5014447;28;20101;-75
2023/07/24 08:54:12;;;;;;;9.40;6.60;;;;;;;;;;5016632;28;20056;-76
2023/07/24 08:56:40;;;;;;;10.70;8.10;;;;;;;;;;5013718;28;20106;-75
2023/07/24 08:59:06;;;;;;;16.00;11.52;;;;;;;;;;5013598;28;20022;-76
2023/07/24 09:01:32;;;;;;;11.40;8.68;;;;;;;;;;5014306;28;20181;-75
2023/07/24 09:03:58;;;;;;;16.30;11.73;;;;;;;;;;5012999;28;20026;-74
2023/07/24 09:06:26;;;;;;;9.98;8.70;;;;;;;;;;4995424;28;20026;-75
2023/07/24 09:08:54;;;;;;;10.93;9.15;;;;;;;;;;5012974;28;20443;-75
2023/07/24 09:11:20;;;;;;;12.20;9.52;;;;;;;;;;5012106;28;20030;-75
2023/07/24 09:13:53;;;;;;;11.43;8.02;;;;;;;;;;5013405;28;20026;-76
2023/07/24 09:16:26;;;;;;;12.20;10.30;;;;;;;;;;5014174;28;20037;-75
2023/07/24 09:18:53;;;;;;;11.10;7.75;;;;;;;;;;4995886;28;20109;-74
2023/07/24 09:21:32;;;;;;;10.85;9.10;;;;;;;;;;5012257;28;20042;-76
2023/07/24 09:23:59;;;;;;;11.53;8.67;;;;;;;;;;5012283;28;20026;-76
2023/07/24 09:26:25;;;;;;;9.48;7.68;;;;;;;;;;5012679;28;20026;-75
2023/07/24 09:28:56;;;;;;;15.15;9.88;;;;;;;;;;5012225;28;20026;-75
2023/07/24 09:31:22;;;;;;;10.90;8.57;;;;;;;;;;5012319;28;20030;-74
2023/07/24 09:33:48;;;;;;;13.45;10.15;;;;;;;;;;5012192;28;20030;-74
2023/07/24 09:36:14;;;;;;;9.40;7.68;;;;;;;;;;5012283;28;20034;-74
2023/07/24 09:38:41;;;;;;;12.18;7.60;;;;;;;;;;5012171;28;20030;-74
2023/07/24 09:41:07;;;;;;;12.50;9.63;;;;;;;;;;5012134;28;20476;-76
2023/07/24 09:43:35;;;;;;;12.23;8.73;;;;;;;;;;5011928;28;20022;-74
2023/07/24 09:46:01;;;;;;;13.60;9.00;;;;;;;;;;5011612;28;20117;-75
2023/07/24 09:48:28;;;;;;;12.60;8.60;;;;;;;;;;5011474;28;20104;-75
2023/07/24 09:50:55;;;;;;;11.10;7.47;;;;;;;;;;5011834;28;20100;-73
2023/07/24 09:53:33;;;;;;;10.30;9.18;;;;;;;;;;5011972;28;20042;-74
2023/07/24 09:56:01;;;;;;;11.48;7.95;;;;;;;;;;5011369;28;20472;-74
2023/07/24 09:58:27;;;;;;;9.25;7.72;;;;;;;;;;5011618;28;20068;-74
2023/07/24 10:00:54;;;;;;;11.25;6.93;;;;;;;;;;5011708;28;20041;-73
2023/07/24 10:03:22;;;;;;;10.40;6.75;;;;;;;;;;5011678;28;20121;-75
2023/07/24 10:05:48;;;;;;;11.07;7.50;;;;;;;;;;4993975;28;20186;-73
2023/07/24 10:08:18;;;;;;;12.07;7.30;;;;;;;;;;5011692;28;20037;-72
2023/07/24 10:10:44;;;;;;;9.75;6.00;;;;;;;;;;5011139;28;20033;-73
2023/07/24 10:13:14;;;;;;;9.85;7.18;;;;;;;;;;5011648;28;20014;-73
2023/07/24 10:15:44;;;;;;;10.35;8.18;;;;;;;;;;5011772;28;20579;-73
2023/07/24 10:18:10;;;;;;;14.90;9.20;;;;;;;;;;5011410;28;20045;-74
2023/07/24 10:20:38;;;;;;;10.35;7.10;;;;;;;;;;5011051;28;20543;-74
2023/07/24 10:23:05;;;;;;;12.00;8.32;;;;;;;;;;5011420;28;20033;-73
2023/07/24 10:25:32;;;;;;;11.32;8.60;;;;;;;;;;5011636;28;20030;-74
2023/07/24 10:28:10;;;;;;;9.35;7.05;;;;;;;;;;5010885;28;20160;-74
2023/07/24 10:30:36;;;;;;;8.98;5.47;;;;;;;;;;5011419;28;20053;-74
2023/07/24 10:33:06;;;;;;;8.65;4.78;;;;;;;;;;5011111;28;20018;-73
2023/07/24 10:35:43;;;;;;;9.85;6.40;;;;;;;;;;5011021;28;20029;-72
2023/07/24 10:38:09;;;;;;;9.43;5.97;;;;;;;;;;5011410;28;20053;-74
2023/07/24 10:40:35;;;;;;;10.63;7.15;;;;;;;;;;4993197;28;20033;-74
2023/07/24 10:43:06;;;;;;;10.15;6.45;;;;;;;;;;5010341;28;20535;-74
2023/07/24 10:45:42;;;;;;;7.93;5.10;;;;;;;;;;5011124;28;20026;-74
2023/07/24 10:48:11;;;;;;;7.35;4.65;;;;;;;;;;4993053;28;20376;-72
2023/07/24 10:50:44;;;;;;;7.20;4.35;;;;;;;;;;4992734;28;20444;-74
2023/07/24 10:53:15;;;;;;;9.88;6.25;;;;;;;;;;5011764;28;20026;-75
2023/07/24 10:55:41;;;;;;;12.18;8.95;;;;;;;;;;5011087;28;20029;-73
2023/07/24 10:58:08;;;;;;;9.80;6.88;;;;;;;;;;5010392;28;20033;-72
2023/07/24 11:00:34;;;;;;;9.82;5.13;;;;;;;;;;5010797;28;20488;-73
2023/07/24 11:03:01;;;;;;;9.15;6.05;;;;;;;;;;5011105;28;20093;-73
2023/07/24 11:05:27;;;;;;;11.00;6.63;;;;;;;;;;5011249;28;20025;-74
2023/07/24 11:07:55;;;;;;;7.05;4.47;;;;;;;;;;5012900;28;20092;-74
2023/07/24 11:10:23;;;;;;;8.35;5.55;;;;;;;;;;5012748;28;20392;-74
2023/07/24 11:12:51;;;;;;;8.65;5.20;;;;;;;;;;4995841;28;20030;-73
2023/07/24 11:15:24;;;;;;;9.52;4.70;;;;;;;;;;5013307;28;20029;-73
2023/07/24 11:17:50;;;;;;;9.75;5.85;;;;;;;;;;5013397;28;20112;-73
2023/07/24 11:20:16;;;;;;;8.10;5.00;;;;;;;;;;5010875;28;20037;-72
2023/07/24 11:22:43;;;;;;;8.70;5.50;;;;;;;;;;5011950;28;20034;-73
2023/07/24 11:25:10;;;;;;;9.35;5.97;;;;;;;;;;5011510;28;20037;-71
2023/07/24 11:27:44;;;;;;;10.00;6.85;;;;;;;;;;5012999;28;20058;-74
2023/07/24 11:30:12;;;;;;;12.05;8.18;;;;;;;;;;5012038;28;20080;-74
2023/07/24 11:32:41;;;;;;;10.63;8.30;;;;;;;;;;5012254;28;20033;-73
2023/07/24 11:35:08;;;;;;;7.50;4.75;;;;;;;;;;4995566;28;20045;-75
2023/07/24 11:37:35;;;;;;;11.73;6.28;;;;;;;;;;5012253;28;20034;-74
2023/07/24 11:40:14;;;;;;;7.97;4.70;;;;;;;;;;5012377;28;20029;-73
2023/07/24 11:42:41;;;;;;;8.65;6.07;;;;;;;;;;5012696;28;20547;-73
2023/07/24 11:45:11;;;;;;;9.13;6.05;;;;;;;;;;5012235;28;20032;-73
2023/07/24 11:47:45;;;;;;;9.10;6.13;;;;;;;;;;5011633;28;20480;-74
2023/07/24 11:50:18;;;;;;;8.68;5.82;;;;;;;;;;5011290;28;20062;-73
2023/07/24 11:52:45;;;;;;;7.07;5.28;;;;;;;;;;4994387;28;20042;-73
2023/07/24 11:55:12;;;;;;;11.60;7.80;;;;;;;;;;5012003;28;20026;-72
2023/07/24 11:57:38;;;;;;;9.35;6.88;;;;;;;;;;5013227;28;20030;-73
2023/07/24 12:00:05;;;;;;;12.95;9.88;;;;;;;;;;5015572;28;20018;-73
2023/07/24 12:02:35;;;;;;;10.82;6.70;;;;;;;;;;5014945;28;20064;-72
2023/07/24 12:05:02;;;;;;;9.15;7.13;;;;;;;;;;5015917;28;20022;-73
2023/07/24 12:07:31;;;;;;;8.43;5.80;;;;;;;;;;5015492;28;20033;-74
2023/07/24 12:09:57;;;;;;;11.10;7.95;;;;;;;;;;5017057;28;20037;-73
2023/07/24 12:12:23;;;;;;;9.48;7.85;;;;;;;;;;5018730;28;20037;-75
2023/07/24 12:14:49;;;;;;;10.27;6.05;;;;;;;;;;5020035;28;20082;-73
2023/07/24 12:17:20;;;;;;;10.75;6.93;;;;;;;;;;5019273;28;20099;-73
2023/07/24 12:19:46;;;;;;;9.25;5.45;;;;;;;;;;5019071;28;20088;-72
2023/07/24 12:22:13;;;;;;;12.82;7.50;;;;;;;;;;5000550;28;20038;-74
2023/07/24 12:24:39;;;;;;;8.15;6.22;;;;;;;;;;5018981;28;20030;-74
2023/07/24 12:27:05;;;;;;;12.70;6.03;;;;;;;;;;5020995;28;20034;-75
2023/07/24 12:29:31;;;;;;;8.70;4.60;;;;;;;;;;5021266;28;20022;-73
2023/07/24 12:31:57;;;;;;;10.73;6.13;;;;;;;;;;5021487;28;20026;-73
2023/07/24 12:34:23;;;;;;;9.82;6.93;;;;;;;;;;5021514;28;20026;-73
2023/07/24 12:36:51;;;;;;;8.73;5.88;;;;;;;;;;5022898;28;20018;-74
2023/07/24 12:39:17;;;;;;;13.82;7.90;;;;;;;;;;5024688;28;20030;-73
2023/07/24 12:41:43;;;;;;;9.45;6.70;;;;;;;;;;5024633;28;20042;-70
2023/07/24 12:44:09;;;;;;;10.60;6.63;;;;;;;;;;5024300;28;20026;-73
2023/07/24 12:46:36;;;;;;;11.18;7.10;;;;;;;;;;5023172;28;20041;-73
2023/07/24 12:49:02;;;;;;;14.55;7.88;;;;;;;;;;5024065;28;20096;-73
2023/07/24 12:51:28;;;;;;;9.70;7.25;;;;;;;;;;5023353;28;20061;-71
2023/07/24 12:53:54;;;;;;;10.30;6.05;;;;;;;;;;5024926;28;20082;-72
2023/07/24 12:56:20;;;;;;;11.85;5.30;;;;;;;;;;5023410;28;20026;-71
2023/07/24 12:58:46;;;;;;;11.38;5.80;;;;;;;;;;5024810;28;20080;-72
2023/07/24 13:01:12;;;;;;;7.55;3.72;;;;;;;;;;5024247;28;20034;-72
2023/07/24 13:03:38;;;;;;;9.13;4.20;;;;;;;;;;5022222;28;20026;-72
2023/07/24 13:06:04;;;;;;;8.85;3.40;;;;;;;;;;5023791;28;20139;-73
2023/07/24 13:08:31;;;;;;;8.60;4.45;;;;;;;;;;5022858;28;20432;-73
2023/07/24 13:10:57;;;;;;;7.03;3.42;;;;;;;;;;5022734;28;20018;-73
2023/07/24 13:13:23;;;;;;;8.15;3.83;;;;;;;;;;5021635;28;20029;-74
2023/07/24 13:15:50;;;;;;;6.95;3.58;;;;;;;;;;5022563;28;20034;-74
2023/07/24 13:18:19;;;;;;;6.15;3.10;;;;;;;;;;5019749;28;20034;-73
2023/07/24 13:20:46;;;;;;;6.88;3.70;;;;;;;;;;5023226;28;20037;-73
2023/07/24 13:23:12;;;;;;;6.78;3.63;;;;;;;;;;5022360;28;20053;-75
2023/07/24 13:25:38;;;;;;;6.35;3.55;;;;;;;;;;5021448;28;20060;-73
2023/07/24 13:28:05;;;;;;;7.03;3.28;;;;;;;;;;5020586;28;20037;-74
2023/07/24 13:30:31;;;;;;;7.88;4.55;;;;;;;;;;5019326;28;20065;-75
2023/07/24 13:32:57;;;;;;;7.47;3.50;;;;;;;;;;5018173;28;20036;-74
2023/07/24 13:35:23;;;;;;;7.47;3.85;;;;;;;;;;5001295;28;20058;-76
2023/07/24 13:37:49;;;;;;;7.88;3.65;;;;;;;;;;5021459;28;20033;-72
2023/07/24 13:40:15;;;;;;;6.22;3.58;;;;;;;;;;5019578;28;20383;-74
2023/07/24 13:42:41;;;;;;;5.93;3.42;;;;;;;;;;5018715;28;20041;-72
2023/07/24 13:45:08;;;;;;;10.20;3.75;;;;;;;;;;5017136;28;20022;-72
2023/07/24 13:47:34;;;;;;;7.90;2.95;;;;;;;;;;5015469;28;20033;-72
2023/07/24 13:50:03;;;;;;;10.15;4.13;;;;;;;;;;5015103;28;20046;-74
2023/07/24 13:52:29;;;;;;;7.13;3.47;;;;;;;;;;5017722;28;20034;-73
2023/07/24 13:54:55;;;;;;;6.95;3.78;;;;;;;;;;5015548;28;20034;-74
2023/07/24 13:57:21;;;;;;;6.72;2.97;;;;;;;;;;5014392;28;20026;-73
2023/07/24 13:59:48;;;;;;;7.18;3.63;;;;;;;;;;5015534;28;20381;-73
2023/07/24 14:02:14;;;;;;;9.65;4.88;;;;;;;;;;5015290;28;20037;-72
2023/07/24 14:04:40;;;;;;;8.52;5.18;;;;;;;;;;5016092;28;20072;-74
2023/07/24 14:07:06;;;;;;;6.40;3.75;;;;;;;;;;5015376;28;20479;-73
2023/07/24 14:09:34;;;;;;;7.85;3.55;;;;;;;;;;5016083;28;20117;-75
2023/07/24 14:12:00;;;;;;;9.43;4.22;;;;;;;;;;5014867;28;20068;-74
2023/07/24 14:14:27;;;;;;;8.52;4.60;;;;;;;;;;5013927;28;20058;-73
2023/07/24 14:16:53;;;;;;;5.70;3.05;;;;;;;;;;4993630;28;20037;-73
2023/07/24 14:19:19;;;;;;;7.03;4.03;;;;;;;;;;5011732;28;20040;-74
2023/07/24 14:21:45;;;;;;;6.88;3.22;;;;;;;;;;5011139;28;20045;-73
2023/07/24 14:24:12;;;;;;;7.22;4.10;;;;;;;;;;4993322;28;20547;-73
2023/07/24 14:26:42;;;;;;;8.75;4.95;;;;;;;;;;5009915;28;20463;-74
2023/07/24 14:29:08;;;;;;;;;;;;;;;;;;5011730;28;20048;-76
2023/07/24 14:31:34;;;;;;;7.97;4.22;;;;;;;;;;5011573;28;19940;-74